sensor_id;sensor_type;location;lat;lon;timestamp;pressure;altitude;pressure_sealevel;temperature;humidity
42847;BME280;28495;49.916;14.536;2023-06-22T00:01:18;97194.16;;;20.70;62.37
42847;BME280;28495;49.916;14.536;2023-06-22T00:06:38;97198.50;;;20.78;62.92
42847;BME280;28495;49.916;14.536;2023-06-22T00:11:59;97200.16;;;20.79;62.45
42847;BME280;28495;49.916;14.536;2023-06-22T00:17:20;97204.34;;;20.67;62.30
42847;BME280;28495;49.916;14.536;2023-06-22T00:22:41;97199.53;;;20.49;62.59
42847;BME280;28495;49.916;14.536;2023-06-22T00:28:04;97203.69;;;20.36;62.50
42847;BME280;28495;49.916;14.536;2023-06-22T00:33:25;97197.63;;;20.43;62.92
42847;BME280;28495;49.916;14.536;2023-06-22T00:38:45;97192.19;;;20.51;62.89
42847;BME280;28495;49.916;14.536;2023-06-22T00:44:06;97192.00;;;20.52;62.53
42847;BME280;28495;49.916;14.536;2023-06-22T00:49:28;97183.09;;;20.32;62.64
42847;BME280;28495;49.916;14.536;2023-06-22T00:54:49;97182.88;;;20.27;62.79
42847;BME280;28495;49.916;14.536;2023-06-22T01:00:11;97170.75;;;20.17;62.98
42847;BME280;28495;49.916;14.536;2023-06-22T01:05:39;97163.69;;;20.24;62.91
42847;BME280;28495;49.916;14.536;2023-06-22T01:11:12;97156.81;;;20.30;62.97
42847;BME280;28495;49.916;14.536;2023-06-22T01:16:40;97160.78;;;20.19;63.10
42847;BME280;28495;49.916;14.536;2023-06-22T01:22:03;97152.13;;;20.04;62.56
42847;BME280;28495;49.916;14.536;2023-06-22T01:27:53;97148.31;;;20.13;63.04
42847;BME280;28495;49.916;14.536;2023-06-22T01:33:17;97140.25;;;20.00;62.99
42847;BME280;28495;49.916;14.536;2023-06-22T01:38:38;97142.06;;;19.92;62.76
42847;BME280;28495;49.916;14.536;2023-06-22T01:44:00;97150.03;;;19.99;62.89
42847;BME280;28495;49.916;14.536;2023-06-22T01:49:22;97151.75;;;20.07;63.30
42847;BME280;28495;49.916;14.536;2023-06-22T01:54:43;97167.94;;;19.97;63.01
42847;BME280;28495;49.916;14.536;2023-06-22T02:00:13;97177.16;;;20.01;63.48
42847;BME280;28495;49.916;14.536;2023-06-22T02:05:41;97176.63;;;19.91;62.89
42847;BME280;28495;49.916;14.536;2023-06-22T02:11:05;97174.47;;;19.79;62.88
42847;BME280;28495;49.916;14.536;2023-06-22T02:16:31;97179.97;;;19.78;62.73
42847;BME280;28495;49.916;14.536;2023-06-22T02:21:52;97173.66;;;19.79;63.18
42847;BME280;28495;49.916;14.536;2023-06-22T02:27:13;97178.50;;;19.75;63.16
42847;BME280;28495;49.916;14.536;2023-06-22T02:32:34;97180.44;;;19.67;63.23
42847;BME280;28495;49.916;14.536;2023-06-22T02:37:56;97172.03;;;19.78;63.15
42847;BME280;28495;49.916;14.536;2023-06-22T02:43:18;97171.31;;;19.69;63.05
42847;BME280;28495;49.916;14.536;2023-06-22T02:48:40;97175.16;;;19.67;63.00
42847;BME280;28495;49.916;14.536;2023-06-22T02:54:01;97165.97;;;19.84;63.12
42847;BME280;28495;49.916;14.536;2023-06-22T02:59:22;97163.25;;;19.77;62.65
42847;BME280;28495;49.916;14.536;2023-06-22T03:04:48;97155.38;;;19.62;62.80
42847;BME280;28495;49.916;14.536;2023-06-22T03:10:10;97157.50;;;19.52;62.63
42847;BME280;28495;49.916;14.536;2023-06-22T03:15:33;97150.91;;;19.63;62.92
42847;BME280;28495;49.916;14.536;2023-06-22T03:20:54;97170.63;;;19.60;62.87
42847;BME280;28495;49.916;14.536;2023-06-22T03:26:18;97178.13;;;19.57;62.69
42847;BME280;28495;49.916;14.536;2023-06-22T03:31:39;97167.97;;;19.60;62.81
42847;BME280;28495;49.916;14.536;2023-06-22T03:37:00;97171.75;;;19.73;63.34
42847;BME280;28495;49.916;14.536;2023-06-22T03:42:22;97172.13;;;19.70;63.01
42847;BME280;28495;49.916;14.536;2023-06-22T03:47:42;97172.81;;;19.78;63.03
42847;BME280;28495;49.916;14.536;2023-06-22T03:53:03;97171.44;;;19.83;63.46
42847;BME280;28495;49.916;14.536;2023-06-22T03:58:24;97153.44;;;19.93;63.53
42847;BME280;28495;49.916;14.536;2023-06-22T04:03:45;97143.28;;;19.97;63.40
42847;BME280;28495;49.916;14.536;2023-06-22T04:09:08;97138.72;;;20.12;63.73
42847;BME280;28495;49.916;14.536;2023-06-22T04:14:29;97142.34;;;20.04;63.00
42847;BME280;28495;49.916;14.536;2023-06-22T04:19:51;97144.28;;;19.74;63.06
42847;BME280;28495;49.916;14.536;2023-06-22T04:25:12;97151.97;;;19.69;63.76
42847;BME280;28495;49.916;14.536;2023-06-22T04:30:33;97155.28;;;20.21;64.40
42847;BME280;28495;49.916;14.536;2023-06-22T04:35:55;97156.97;;;20.57;64.02
42847;BME280;28495;49.916;14.536;2023-06-22T04:41:17;97160.88;;;20.96;64.08
42847;BME280;28495;49.916;14.536;2023-06-22T04:46:44;97145.13;;;21.30;63.70
42847;BME280;28495;49.916;14.536;2023-06-22T04:52:07;97158.69;;;21.62;63.82
42847;BME280;28495;49.916;14.536;2023-06-22T04:57:28;97160.13;;;21.71;63.11
42847;BME280;28495;49.916;14.536;2023-06-22T05:02:53;97173.44;;;21.91;63.47
42847;BME280;28495;49.916;14.536;2023-06-22T05:08:30;97182.00;;;22.54;63.93
42847;BME280;28495;49.916;14.536;2023-06-22T05:13:51;97190.94;;;23.00;63.09
42847;BME280;28495;49.916;14.536;2023-06-22T05:19:12;97184.66;;;23.40;63.23
42847;BME280;28495;49.916;14.536;2023-06-22T05:24:33;97176.22;;;23.50;62.58
42847;BME280;28495;49.916;14.536;2023-06-22T05:29:54;97180.22;;;23.66;62.22
42847;BME280;28495;49.916;14.536;2023-06-22T05:35:15;97184.75;;;23.90;62.53
42847;BME280;28495;49.916;14.536;2023-06-22T05:40:35;97184.88;;;24.09;61.96
42847;BME280;28495;49.916;14.536;2023-06-22T05:45:56;97183.06;;;24.28;61.74
42847;BME280;28495;49.916;14.536;2023-06-22T05:51:17;97197.59;;;24.07;61.40
42847;BME280;28495;49.916;14.536;2023-06-22T05:56:38;97208.72;;;23.90;61.58
42847;BME280;28495;49.916;14.536;2023-06-22T06:01:59;97227.06;;;24.12;62.08
42847;BME280;28495;49.916;14.536;2023-06-22T06:07:21;97210.97;;;24.51;61.93
42847;BME280;28495;49.916;14.536;2023-06-22T06:12:42;97205.66;;;24.51;61.47
42847;BME280;28495;49.916;14.536;2023-06-22T06:18:03;97225.28;;;24.82;61.62
42847;BME280;28495;49.916;14.536;2023-06-22T06:23:26;97219.06;;;25.25;61.40
42847;BME280;28495;49.916;14.536;2023-06-22T06:28:46;97215.50;;;25.50;61.15
42847;BME280;28495;49.916;14.536;2023-06-22T06:34:07;97214.47;;;25.51;61.04
42847;BME280;28495;49.916;14.536;2023-06-22T06:39:28;97216.25;;;25.58;60.80
42847;BME280;28495;49.916;14.536;2023-06-22T06:44:49;97208.22;;;25.88;60.79
42847;BME280;28495;49.916;14.536;2023-06-22T06:50:11;97205.88;;;25.80;60.22
42847;BME280;28495;49.916;14.536;2023-06-22T06:55:31;97194.53;;;25.66;60.01
42847;BME280;28495;49.916;14.536;2023-06-22T07:00:53;97190.88;;;25.79;59.94
42847;BME280;28495;49.916;14.536;2023-06-22T07:06:14;97196.03;;;25.92;60.19
42847;BME280;28495;49.916;14.536;2023-06-22T07:11:36;97186.09;;;26.11;59.75
42847;BME280;28495;49.916;14.536;2023-06-22T07:16:58;97173.34;;;26.25;59.44
42847;BME280;28495;49.916;14.536;2023-06-22T07:22:19;97171.59;;;26.31;59.98
42847;BME280;28495;49.916;14.536;2023-06-22T07:27:44;97169.88;;;26.48;59.43
42847;BME280;28495;49.916;14.536;2023-06-22T07:33:05;97162.31;;;26.57;59.49
42847;BME280;28495;49.916;14.536;2023-06-22T07:38:29;97162.31;;;26.69;58.92
42847;BME280;28495;49.916;14.536;2023-06-22T07:43:49;97166.50;;;26.65;58.40
42847;BME280;28495;49.916;14.536;2023-06-22T07:49:11;97156.84;;;26.52;58.46
42847;BME280;28495;49.916;14.536;2023-06-22T07:54:32;97155.66;;;26.48;58.70
42847;BME280;28495;49.916;14.536;2023-06-22T07:59:53;97151.47;;;26.64;58.49
42847;BME280;28495;49.916;14.536;2023-06-22T08:05:15;97140.75;;;26.88;57.95
42847;BME280;28495;49.916;14.536;2023-06-22T08:10:38;97141.84;;;26.63;57.96
42847;BME280;28495;49.916;14.536;2023-06-22T08:16:00;97141.03;;;26.51;57.98
42847;BME280;28495;49.916;14.536;2023-06-22T08:21:20;97143.47;;;26.52;58.57
42847;BME280;28495;49.916;14.536;2023-06-22T08:26:42;97134.41;;;26.53;57.73
42847;BME280;28495;49.916;14.536;2023-06-22T08:32:04;97118.09;;;26.67;58.48
42847;BME280;28495;49.916;14.536;2023-06-22T08:37:25;97115.06;;;26.75;58.02
42847;BME280;28495;49.916;14.536;2023-06-22T08:42:52;97109.63;;;26.82;58.37
42847;BME280;28495;49.916;14.536;2023-06-22T08:48:13;97106.09;;;26.93;57.62
42847;BME280;28495;49.916;14.536;2023-06-22T08:53:33;97112.75;;;26.90;57.35
42847;BME280;28495;49.916;14.536;2023-06-22T08:58:55;97107.53;;;26.84;57.64
42847;BME280;28495;49.916;14.536;2023-06-22T09:04:17;97112.03;;;26.83;57.74
42847;BME280;28495;49.916;14.536;2023-06-22T09:09:39;97107.16;;;26.80;58.03
42847;BME280;28495;49.916;14.536;2023-06-22T09:15:00;97103.09;;;26.89;57.68
42847;BME280;28495;49.916;14.536;2023-06-22T09:20:21;97082.63;;;27.12;57.79
42847;BME280;28495;49.916;14.536;2023-06-22T09:25:42;97087.97;;;27.12;57.77
42847;BME280;28495;49.916;14.536;2023-06-22T09:31:03;97093.47;;;27.05;57.37
42847;BME280;28495;49.916;14.536;2023-06-22T09:36:24;97083.75;;;26.99;57.53
42847;BME280;28495;49.916;14.536;2023-06-22T09:41:45;97080.28;;;27.16;58.13
42847;BME280;28495;49.916;14.536;2023-06-22T09:47:06;97074.31;;;27.26;57.36
42847;BME280;28495;49.916;14.536;2023-06-22T09:52:27;97085.91;;;27.31;57.68
42847;BME280;28495;49.916;14.536;2023-06-22T09:58:06;97073.66;;;27.35;57.67
42847;BME280;28495;49.916;14.536;2023-06-22T10:03:27;97073.16;;;27.50;57.86
42847;BME280;28495;49.916;14.536;2023-06-22T10:08:50;97076.56;;;27.46;57.66
42847;BME280;28495;49.916;14.536;2023-06-22T10:14:10;97081.91;;;27.46;57.06
42847;BME280;28495;49.916;14.536;2023-06-22T10:19:31;97074.22;;;27.49;57.12
42847;BME280;28495;49.916;14.536;2023-06-22T10:24:52;97077.31;;;27.58;57.20
42847;BME280;28495;49.916;14.536;2023-06-22T10:30:13;97074.69;;;27.63;57.24
42847;BME280;28495;49.916;14.536;2023-06-22T10:35:34;97067.00;;;27.67;57.04
42847;BME280;28495;49.916;14.536;2023-06-22T10:40:55;97068.31;;;27.81;57.06
42847;BME280;28495;49.916;14.536;2023-06-22T10:46:18;97062.28;;;27.74;56.50
42847;BME280;28495;49.916;14.536;2023-06-22T10:51:39;97051.66;;;27.79;56.96
42847;BME280;28495;49.916;14.536;2023-06-22T10:57:01;97059.06;;;27.89;56.59
42847;BME280;28495;49.916;14.536;2023-06-22T11:02:23;97046.28;;;27.96;56.06
42847;BME280;28495;49.916;14.536;2023-06-22T11:07:45;97043.84;;;27.95;55.43
42847;BME280;28495;49.916;14.536;2023-06-22T11:13:07;97036.63;;;27.95;55.37
42847;BME280;28495;49.916;14.536;2023-06-22T11:18:31;97029.06;;;27.92;55.31
42847;BME280;28495;49.916;14.536;2023-06-22T11:23:54;97031.41;;;27.89;55.35
42847;BME280;28495;49.916;14.536;2023-06-22T11:29:15;97026.81;;;27.84;55.24
42847;BME280;28495;49.916;14.536;2023-06-22T11:34:51;97022.56;;;28.05;55.74
42847;BME280;28495;49.916;14.536;2023-06-22T11:40:12;97015.41;;;28.11;55.87
42847;BME280;28495;49.916;14.536;2023-06-22T11:45:33;97006.88;;;28.14;55.23
42847;BME280;28495;49.916;14.536;2023-06-22T11:50:54;97003.00;;;28.05;54.78
42847;BME280;28495;49.916;14.536;2023-06-22T11:56:18;97004.09;;;28.09;55.47
42847;BME280;28495;49.916;14.536;2023-06-22T12:01:38;96998.66;;;28.21;55.33
42847;BME280;28495;49.916;14.536;2023-06-22T12:06:59;97004.50;;;28.18;54.57
42847;BME280;28495;49.916;14.536;2023-06-22T12:12:20;97001.78;;;28.12;54.86
42847;BME280;28495;49.916;14.536;2023-06-22T12:17:41;97002.41;;;28.20;54.82
42847;BME280;28495;49.916;14.536;2023-06-22T12:23:01;96988.91;;;28.37;54.91
42847;BME280;28495;49.916;14.536;2023-06-22T12:28:22;96982.56;;;28.43;54.48
42847;BME280;28495;49.916;14.536;2023-06-22T12:33:43;96982.69;;;28.53;54.75
42847;BME280;28495;49.916;14.536;2023-06-22T12:39:04;96971.09;;;28.48;54.15
42847;BME280;28495;49.916;14.536;2023-06-22T12:44:25;96958.72;;;28.47;54.04
42847;BME280;28495;49.916;14.536;2023-06-22T12:49:46;96956.41;;;28.55;54.08
42847;BME280;28495;49.916;14.536;2023-06-22T12:55:07;96957.59;;;28.65;54.13
42847;BME280;28495;49.916;14.536;2023-06-22T13:00:28;96936.13;;;28.65;53.69
42847;BME280;28495;49.916;14.536;2023-06-22T13:05:50;96938.13;;;28.74;53.99
42847;BME280;28495;49.916;14.536;2023-06-22T13:11:10;96928.22;;;28.75;53.57
42847;BME280;28495;49.916;14.536;2023-06-22T13:16:31;96916.81;;;28.68;53.50
42847;BME280;28495;49.916;14.536;2023-06-22T13:21:52;96915.91;;;28.79;53.54
42847;BME280;28495;49.916;14.536;2023-06-22T13:27:12;96902.00;;;28.87;53.25
42847;BME280;28495;49.916;14.536;2023-06-22T13:32:33;96898.56;;;28.92;53.17
42847;BME280;28495;49.916;14.536;2023-06-22T13:37:54;96892.47;;;29.02;53.13
42847;BME280;28495;49.916;14.536;2023-06-22T13:43:16;96882.00;;;29.00;52.90
42847;BME280;28495;49.916;14.536;2023-06-22T13:48:36;96880.41;;;29.04;53.14
42847;BME280;28495;49.916;14.536;2023-06-22T13:53:57;96874.41;;;28.92;52.80
42847;BME280;28495;49.916;14.536;2023-06-22T13:59:18;96864.94;;;28.84;52.81
42847;BME280;28495;49.916;14.536;2023-06-22T14:04:40;96869.25;;;28.85;53.13
42847;BME280;28495;49.916;14.536;2023-06-22T14:10:01;96857.75;;;28.90;53.17
42847;BME280;28495;49.916;14.536;2023-06-22T14:15:22;96867.81;;;29.05;52.98
42847;BME280;28495;49.916;14.536;2023-06-22T14:20:43;96864.84;;;29.01;52.83
42847;BME280;28495;49.916;14.536;2023-06-22T14:26:04;96859.75;;;29.05;52.83
42847;BME280;28495;49.916;14.536;2023-06-22T14:31:24;96854.16;;;29.12;52.65
42847;BME280;28495;49.916;14.536;2023-06-22T14:36:45;96848.50;;;29.13;52.46
42847;BME280;28495;49.916;14.536;2023-06-22T14:42:06;96852.56;;;29.16;52.15
42847;BME280;28495;49.916;14.536;2023-06-22T14:47:27;96845.88;;;29.18;52.06
42847;BME280;28495;49.916;14.536;2023-06-22T14:52:49;96834.88;;;29.20;52.13
42847;BME280;28495;49.916;14.536;2023-06-22T14:58:10;96831.66;;;29.23;52.22
42847;BME280;28495;49.916;14.536;2023-06-22T15:10:08;96817.97;;;29.19;51.75
42847;BME280;28495;49.916;14.536;2023-06-22T15:15:29;96804.75;;;29.13;51.94
42847;BME280;28495;49.916;14.536;2023-06-22T15:21:16;96813.28;;;29.04;51.61
42847;BME280;28495;49.916;14.536;2023-06-22T15:26:37;96800.63;;;29.00;51.57
42847;BME280;28495;49.916;14.536;2023-06-22T15:31:58;96805.44;;;28.98;51.95
42847;BME280;28495;49.916;14.536;2023-06-22T15:37:19;96793.09;;;28.97;51.69
42847;BME280;28495;49.916;14.536;2023-06-22T15:42:40;96789.09;;;28.99;51.86
42847;BME280;28495;49.916;14.536;2023-06-22T15:48:01;96778.88;;;28.96;51.56
42847;BME280;28495;49.916;14.536;2023-06-22T15:53:23;96756.63;;;28.96;51.51
42847;BME280;28495;49.916;14.536;2023-06-22T15:58:43;96730.53;;;28.91;51.51
42847;BME280;28495;49.916;14.536;2023-06-22T16:12:29;96703.69;;;28.86;51.70
42847;BME280;28495;49.916;14.536;2023-06-22T16:17:50;96716.78;;;28.82;51.26
42847;BME280;28495;49.916;14.536;2023-06-22T16:23:11;96723.13;;;28.71;51.19
42847;BME280;28495;49.916;14.536;2023-06-22T16:28:31;96721.78;;;28.68;51.15
42847;BME280;28495;49.916;14.536;2023-06-22T16:41:43;96721.41;;;28.54;51.18
42847;BME280;28495;49.916;14.536;2023-06-22T16:47:06;96697.47;;;28.48;51.06
42847;BME280;28495;49.916;14.536;2023-06-22T16:52:27;96693.97;;;28.42;51.48
42847;BME280;28495;49.916;14.536;2023-06-22T16:57:50;96689.09;;;28.34;51.38
42847;BME280;28495;49.916;14.536;2023-06-22T17:03:18;96677.19;;;28.24;51.22
42847;BME280;28495;49.916;14.536;2023-06-22T17:08:44;96666.69;;;28.18;51.25
42847;BME280;28495;49.916;14.536;2023-06-22T17:14:06;96661.09;;;28.19;51.60
42847;BME280;28495;49.916;14.536;2023-06-22T17:19:27;96647.16;;;28.22;51.67
42847;BME280;28495;49.916;14.536;2023-06-22T17:24:48;96631.13;;;28.27;51.66
42847;BME280;28495;49.916;14.536;2023-06-22T17:30:12;96623.56;;;28.24;51.58
42847;BME280;28495;49.916;14.536;2023-06-22T17:35:48;96614.66;;;28.13;51.51
42847;BME280;28495;49.916;14.536;2023-06-22T17:41:09;96610.53;;;28.01;51.71
42847;BME280;28495;49.916;14.536;2023-06-22T17:46:34;96591.69;;;27.90;51.84
42847;BME280;28495;49.916;14.536;2023-06-22T17:51:56;96595.66;;;27.82;51.68
42847;BME280;28495;49.916;14.536;2023-06-22T17:57:18;96608.94;;;27.72;51.52
42847;BME280;28495;49.916;14.536;2023-06-22T18:02:40;96606.25;;;27.67;51.99
42847;BME280;28495;49.916;14.536;2023-06-22T18:08:05;96614.97;;;27.57;52.01
42847;BME280;28495;49.916;14.536;2023-06-22T18:13:27;96614.63;;;27.48;52.07
42847;BME280;28495;49.916;14.536;2023-06-22T18:18:49;96613.69;;;27.37;52.17
42847;BME280;28495;49.916;14.536;2023-06-22T18:24:10;96610.38;;;27.30;52.21
42847;BME280;28495;49.916;14.536;2023-06-22T18:29:31;96600.97;;;27.22;51.96
42847;BME280;28495;49.916;14.536;2023-06-22T18:34:52;96591.19;;;27.11;52.13
42847;BME280;28495;49.916;14.536;2023-06-22T18:40:14;96581.16;;;27.01;52.50
42847;BME280;28495;49.916;14.536;2023-06-22T18:45:38;96581.88;;;26.91;52.53
42847;BME280;28495;49.916;14.536;2023-06-22T18:51:10;96611.16;;;26.81;52.49
42847;BME280;28495;49.916;14.536;2023-06-22T18:56:32;96615.31;;;26.72;52.87
42847;BME280;28495;49.916;14.536;2023-06-22T19:01:52;96599.19;;;26.67;52.97
42847;BME280;28495;49.916;14.536;2023-06-22T19:07:13;96622.88;;;26.58;52.82
42847;BME280;28495;49.916;14.536;2023-06-22T19:12:34;96623.00;;;26.46;52.55
42847;BME280;28495;49.916;14.536;2023-06-22T19:17:59;96649.25;;;26.32;52.81
42847;BME280;28495;49.916;14.536;2023-06-22T19:34:10;96662.09;;;26.01;53.19
42847;BME280;28495;49.916;14.536;2023-06-22T19:39:35;96662.56;;;25.98;53.83
42847;BME280;28495;49.916;14.536;2023-06-22T19:44:57;96649.47;;;25.96;53.57
42847;BME280;28495;49.916;14.536;2023-06-22T19:50:20;96610.19;;;25.97;53.78
42847;BME280;28495;49.916;14.536;2023-06-22T19:55:47;96584.94;;;25.87;53.74
42847;BME280;28495;49.916;14.536;2023-06-22T20:01:11;96576.84;;;25.82;54.13
42847;BME280;28495;49.916;14.536;2023-06-22T20:06:31;96572.72;;;25.75;54.17
42847;BME280;28495;49.916;14.536;2023-06-22T20:11:57;96554.66;;;25.65;54.32
42847;BME280;28495;49.916;14.536;2023-06-22T20:17:18;96531.53;;;25.53;54.07
42847;BME280;28495;49.916;14.536;2023-06-22T20:22:44;96495.50;;;25.39;54.17
42847;BME280;28495;49.916;14.536;2023-06-22T20:28:12;96471.31;;;25.29;54.31
42847;BME280;28495;49.916;14.536;2023-06-22T20:33:34;96432.97;;;25.18;54.86
42847;BME280;28495;49.916;14.536;2023-06-22T20:38:55;96406.44;;;25.11;55.06
42847;BME280;28495;49.916;14.536;2023-06-22T20:44:15;96373.78;;;25.04;54.83
42847;BME280;28495;49.916;14.536;2023-06-22T20:49:36;96360.84;;;24.95;55.21
42847;BME280;28495;49.916;14.536;2023-06-22T20:54:58;96378.84;;;24.88;55.09
42847;BME280;28495;49.916;14.536;2023-06-22T21:00:18;96403.28;;;24.80;55.32
42847;BME280;28495;49.916;14.536;2023-06-22T21:05:39;96415.38;;;24.71;55.76
42847;BME280;28495;49.916;14.536;2023-06-22T21:11:04;96443.53;;;24.66;55.95
42847;BME280;28495;49.916;14.536;2023-06-22T21:16:26;96456.53;;;24.63;56.27
42847;BME280;28495;49.916;14.536;2023-06-22T21:21:46;96446.66;;;24.63;56.31
42847;BME280;28495;49.916;14.536;2023-06-22T21:27:07;96454.19;;;24.66;56.40
42847;BME280;28495;49.916;14.536;2023-06-22T21:32:28;96452.47;;;24.72;56.55
42847;BME280;28495;49.916;14.536;2023-06-22T21:37:49;96487.22;;;24.77;56.57
42847;BME280;28495;49.916;14.536;2023-06-22T21:43:10;96502.94;;;24.91;56.99
42847;BME280;28495;49.916;14.536;2023-06-22T21:48:32;96531.97;;;24.87;56.80
42847;BME280;28495;49.916;14.536;2023-06-22T21:53:53;96558.97;;;24.79;56.94
42847;BME280;28495;49.916;14.536;2023-06-22T21:59:14;96585.97;;;24.83;56.91
42847;BME280;28495;49.916;14.536;2023-06-22T22:04:35;96559.91;;;24.85;56.97
42847;BME280;28495;49.916;14.536;2023-06-22T22:09:58;96571.13;;;24.87;57.09
42847;BME280;28495;49.916;14.536;2023-06-22T22:15:19;96534.13;;;24.90;57.18
42847;BME280;28495;49.916;14.536;2023-06-22T22:20:41;96523.72;;;24.89;57.33
42847;BME280;28495;49.916;14.536;2023-06-22T22:26:01;96496.03;;;24.78;57.45
42847;BME280;28495;49.916;14.536;2023-06-22T22:31:22;96460.31;;;24.67;57.94
42847;BME280;28495;49.916;14.536;2023-06-22T22:36:43;96431.41;;;24.59;58.53
42847;BME280;28495;49.916;14.536;2023-06-22T22:42:05;96464.31;;;24.53;58.73
42847;BME280;28495;49.916;14.536;2023-06-22T22:47:26;96471.88;;;24.44;59.05
42847;BME280;28495;49.916;14.536;2023-06-22T22:52:47;96484.44;;;24.31;59.29
42847;BME280;28495;49.916;14.536;2023-06-22T22:58:08;96569.94;;;24.06;58.81
42847;BME280;28495;49.916;14.536;2023-06-22T23:03:29;96650.59;;;23.83;59.32
42847;BME280;28495;49.916;14.536;2023-06-22T23:08:50;96681.50;;;23.84;59.83
42847;BME280;28495;49.916;14.536;2023-06-22T23:14:17;96642.59;;;23.83;60.12
42847;BME280;28495;49.916;14.536;2023-06-22T23:19:38;96697.81;;;23.75;60.33
42847;BME280;28495;49.916;14.536;2023-06-22T23:24:59;96703.59;;;23.72;60.61
42847;BME280;28495;49.916;14.536;2023-06-22T23:30:20;96775.47;;;23.54;60.89
42847;BME280;28495;49.916;14.536;2023-06-22T23:35:41;96777.41;;;23.28;61.03
42847;BME280;28495;49.916;14.536;2023-06-22T23:41:02;96730.44;;;23.15;61.07
42847;BME280;28495;49.916;14.536;2023-06-22T23:46:23;96671.56;;;23.11;61.30
42847;BME280;28495;49.916;14.536;2023-06-22T23:51:44;96655.69;;;23.05;61.47
42847;BME280;28495;49.916;14.536;2023-06-22T23:57:05;96635.00;;;22.88;61.24
